Portada
METAR-TAF:

METAR-TAF

Aeropuertos :

Hafar Al-Batin, Arabia Saudita

latitud: 27-54N, longitud: 045-32E, altitud: 413 m

METAR: falta

Hora: 14:45 (11:45 UTC)

Pronóstico

El informe se hizo hace 6 horas y 45 minutos, a las 05:00 UTC
Pronóstico válido del 27 a las 06 UTC al 27 a las 20 UTC
Viento 10 kt del norte-noroeste
Visibilidad: 7000 m

TAF: OEKK 270500Z 2706/2720 33010KT 7000 NSC

Observaciones y pronósticos meteorológicos de más de 4000 aeropuertos (mensajes METAR y TAF).

Los puntos amarillos y rojos representan las estaciones disponibles.

Ponga el ratón en el punto deseado para ver el nombre de la estación.

Haga clic para ver las observaciones y los pronósticos meteorológicos.

Para cambiar el mapa : haga clic en los botones verdes con una cruz de color negro para hacer un zoom, en el botón verde con un guión para alejar o en las flechas verdes para mapas adyacentes.


METAR-TAF: